sensor_id;sensor_type;location;lat;lon;timestamp;P1;durP1;ratioP1;P2;durP2;ratioP2
29824;SDS011;16713;52.916;12.834;2024-02-14T00:00:50;7.95;;;4.88;;
29824;SDS011;16713;52.916;12.834;2024-02-14T00:03:16;8.10;;;5.53;;
29824;SDS011;16713;52.916;12.834;2024-02-14T00:05:43;6.95;;;5.13;;
29824;SDS011;16713;52.916;12.834;2024-02-14T00:08:10;7.50;;;5.07;;
29824;SDS011;16713;52.916;12.834;2024-02-14T00:10:37;9.27;;;4.68;;
29824;SDS011;16713;52.916;12.834;2024-02-14T00:13:03;11.48;;;6.70;;
29824;SDS011;16713;52.916;12.834;2024-02-14T00:15:30;8.07;;;5.57;;
29824;SDS011;16713;52.916;12.834;2024-02-14T00:17:56;7.53;;;5.32;;
29824;SDS011;16713;52.916;12.834;2024-02-14T00:20:23;9.85;;;5.57;;
29824;SDS011;16713;52.916;12.834;2024-02-14T00:22:51;8.57;;;5.32;;
29824;SDS011;16713;52.916;12.834;2024-02-14T00:25:17;8.07;;;5.38;;
29824;SDS011;16713;52.916;12.834;2024-02-14T00:27:46;9.10;;;5.70;;
29824;SDS011;16713;52.916;12.834;2024-02-14T00:30:12;10.13;;;5.88;;
29824;SDS011;16713;52.916;12.834;2024-02-14T00:32:39;9.57;;;5.40;;
29824;SDS011;16713;52.916;12.834;2024-02-14T00:35:06;7.47;;;5.22;;
29824;SDS011;16713;52.916;12.834;2024-02-14T00:37:33;7.63;;;5.40;;
29824;SDS011;16713;52.916;12.834;2024-02-14T00:40:00;8.07;;;5.50;;
29824;SDS011;16713;52.916;12.834;2024-02-14T00:42:26;8.05;;;5.60;;
29824;SDS011;16713;52.916;12.834;2024-02-14T00:44:53;7.97;;;5.32;;
29824;SDS011;16713;52.916;12.834;2024-02-14T00:47:20;6.60;;;5.00;;
29824;SDS011;16713;52.916;12.834;2024-02-14T00:49:46;8.82;;;5.43;;
29824;SDS011;16713;52.916;12.834;2024-02-14T00:52:13;15.98;;;6.15;;
29824;SDS011;16713;52.916;12.834;2024-02-14T00:54:39;6.82;;;4.75;;
29824;SDS011;16713;52.916;12.834;2024-02-14T00:57:06;8.38;;;5.05;;
29824;SDS011;16713;52.916;12.834;2024-02-14T00:59:32;9.68;;;5.78;;
29824;SDS011;16713;52.916;12.834;2024-02-14T01:01:59;7.38;;;5.18;;
29824;SDS011;16713;52.916;12.834;2024-02-14T01:04:25;12.65;;;5.18;;
29824;SDS011;16713;52.916;12.834;2024-02-14T01:06:52;7.63;;;4.97;;
29824;SDS011;16713;52.916;12.834;2024-02-14T01:09:18;8.30;;;4.95;;
29824;SDS011;16713;52.916;12.834;2024-02-14T01:11:45;8.48;;;5.00;;
29824;SDS011;16713;52.916;12.834;2024-02-14T01:14:12;8.73;;;5.78;;
29824;SDS011;16713;52.916;12.834;2024-02-14T01:16:43;9.45;;;5.18;;
29824;SDS011;16713;52.916;12.834;2024-02-14T01:19:10;7.35;;;4.80;;
29824;SDS011;16713;52.916;12.834;2024-02-14T01:21:37;5.65;;;4.80;;
29824;SDS011;16713;52.916;12.834;2024-02-14T01:24:04;7.70;;;4.78;;
29824;SDS011;16713;52.916;12.834;2024-02-14T01:26:31;9.30;;;5.00;;
29824;SDS011;16713;52.916;12.834;2024-02-14T01:29:01;7.70;;;5.55;;
29824;SDS011;16713;52.916;12.834;2024-02-14T01:31:27;8.50;;;4.72;;
29824;SDS011;16713;52.916;12.834;2024-02-14T01:33:55;5.47;;;4.47;;
29824;SDS011;16713;52.916;12.834;2024-02-14T01:36:22;7.05;;;4.43;;
29824;SDS011;16713;52.916;12.834;2024-02-14T01:38:49;10.75;;;5.18;;
29824;SDS011;16713;52.916;12.834;2024-02-14T01:41:16;6.82;;;5.05;;
29824;SDS011;16713;52.916;12.834;2024-02-14T01:43:42;7.45;;;4.88;;
29824;SDS011;16713;52.916;12.834;2024-02-14T01:46:10;6.78;;;4.43;;
29824;SDS011;16713;52.916;12.834;2024-02-14T01:48:37;7.65;;;4.70;;
29824;SDS011;16713;52.916;12.834;2024-02-14T01:51:06;8.68;;;5.40;;
29824;SDS011;16713;52.916;12.834;2024-02-14T01:53:35;9.27;;;4.60;;
29824;SDS011;16713;52.916;12.834;2024-02-14T01:56:03;7.88;;;5.35;;
29824;SDS011;16713;52.916;12.834;2024-02-14T01:58:32;8.15;;;5.20;;
29824;SDS011;16713;52.916;12.834;2024-02-14T02:01:00;10.60;;;4.90;;
29824;SDS011;16713;52.916;12.834;2024-02-14T02:03:27;11.63;;;5.22;;
29824;SDS011;16713;52.916;12.834;2024-02-14T02:05:54;9.45;;;4.88;;
29824;SDS011;16713;52.916;12.834;2024-02-14T02:08:21;9.77;;;5.20;;
29824;SDS011;16713;52.916;12.834;2024-02-14T02:10:48;9.35;;;5.72;;
29824;SDS011;16713;52.916;12.834;2024-02-14T02:13:15;8.38;;;5.20;;
29824;SDS011;16713;52.916;12.834;2024-02-14T02:15:42;9.77;;;5.53;;
29824;SDS011;16713;52.916;12.834;2024-02-14T02:18:11;7.07;;;5.10;;
29824;SDS011;16713;52.916;12.834;2024-02-14T02:20:39;11.68;;;5.35;;
29824;SDS011;16713;52.916;12.834;2024-02-14T02:23:10;7.57;;;5.40;;
29824;SDS011;16713;52.916;12.834;2024-02-14T02:25:42;9.02;;;5.95;;
29824;SDS011;16713;52.916;12.834;2024-02-14T02:28:09;7.03;;;5.20;;
29824;SDS011;16713;52.916;12.834;2024-02-14T02:30:36;6.55;;;5.45;;
29824;SDS011;16713;52.916;12.834;2024-02-14T02:33:03;6.60;;;5.32;;
29824;SDS011;16713;52.916;12.834;2024-02-14T02:35:31;7.35;;;5.03;;
29824;SDS011;16713;52.916;12.834;2024-02-14T02:37:58;6.88;;;5.20;;
29824;SDS011;16713;52.916;12.834;2024-02-14T02:40:24;7.47;;;5.10;;
29824;SDS011;16713;52.916;12.834;2024-02-14T02:42:53;8.55;;;5.32;;
29824;SDS011;16713;52.916;12.834;2024-02-14T02:45:20;7.45;;;4.93;;
29824;SDS011;16713;52.916;12.834;2024-02-14T02:47:47;10.23;;;5.35;;
29824;SDS011;16713;52.916;12.834;2024-02-14T02:50:14;8.15;;;5.00;;
29824;SDS011;16713;52.916;12.834;2024-02-14T02:52:40;6.60;;;5.38;;
29824;SDS011;16713;52.916;12.834;2024-02-14T02:55:08;11.20;;;5.32;;
29824;SDS011;16713;52.916;12.834;2024-02-14T02:57:34;5.65;;;4.85;;
29824;SDS011;16713;52.916;12.834;2024-02-14T03:00:03;8.35;;;5.53;;
29824;SDS011;16713;52.916;12.834;2024-02-14T03:02:39;8.82;;;4.55;;
29824;SDS011;16713;52.916;12.834;2024-02-14T03:05:10;8.13;;;4.63;;
29824;SDS011;16713;52.916;12.834;2024-02-14T03:07:44;8.30;;;4.97;;
29824;SDS011;16713;52.916;12.834;2024-02-14T03:10:11;5.97;;;4.20;;
29824;SDS011;16713;52.916;12.834;2024-02-14T03:12:47;6.35;;;4.70;;
29824;SDS011;16713;52.916;12.834;2024-02-14T03:15:14;8.23;;;5.40;;
29824;SDS011;16713;52.916;12.834;2024-02-14T03:17:41;6.32;;;4.65;;
29824;SDS011;16713;52.916;12.834;2024-02-14T03:20:11;8.25;;;6.05;;
29824;SDS011;16713;52.916;12.834;2024-02-14T03:22:44;7.45;;;4.93;;
29824;SDS011;16713;52.916;12.834;2024-02-14T03:25:12;10.13;;;5.05;;
29824;SDS011;16713;52.916;12.834;2024-02-14T03:27:47;5.88;;;4.50;;
29824;SDS011;16713;52.916;12.834;2024-02-14T03:30:17;7.32;;;5.07;;
29824;SDS011;16713;52.916;12.834;2024-02-14T03:32:48;7.03;;;4.68;;
29824;SDS011;16713;52.916;12.834;2024-02-14T03:35:16;9.88;;;5.05;;
29824;SDS011;16713;52.916;12.834;2024-02-14T03:37:45;5.63;;;4.28;;
29824;SDS011;16713;52.916;12.834;2024-02-14T03:40:15;8.07;;;4.45;;
29824;SDS011;16713;52.916;12.834;2024-02-14T03:42:41;11.10;;;5.10;;
29824;SDS011;16713;52.916;12.834;2024-02-14T03:45:08;9.82;;;5.18;;
29824;SDS011;16713;52.916;12.834;2024-02-14T03:47:35;8.35;;;4.50;;
29824;SDS011;16713;52.916;12.834;2024-02-14T03:50:06;7.40;;;4.32;;
29824;SDS011;16713;52.916;12.834;2024-02-14T03:52:33;5.70;;;4.13;;
29824;SDS011;16713;52.916;12.834;2024-02-14T03:55:00;5.70;;;3.95;;
29824;SDS011;16713;52.916;12.834;2024-02-14T03:57:27;8.50;;;4.22;;
29824;SDS011;16713;52.916;12.834;2024-02-14T03:59:59;7.25;;;4.18;;
29824;SDS011;16713;52.916;12.834;2024-02-14T04:02:30;6.70;;;4.93;;
29824;SDS011;16713;52.916;12.834;2024-02-14T04:04:58;8.27;;;4.13;;
29824;SDS011;16713;52.916;12.834;2024-02-14T04:07:24;8.77;;;4.50;;
29824;SDS011;16713;52.916;12.834;2024-02-14T04:09:50;6.03;;;4.47;;
29824;SDS011;16713;52.916;12.834;2024-02-14T04:12:17;6.68;;;4.72;;
29824;SDS011;16713;52.916;12.834;2024-02-14T04:14:44;7.63;;;4.25;;
29824;SDS011;16713;52.916;12.834;2024-02-14T04:17:10;6.70;;;5.00;;
29824;SDS011;16713;52.916;12.834;2024-02-14T04:19:39;7.68;;;4.07;;
29824;SDS011;16713;52.916;12.834;2024-02-14T04:22:05;6.85;;;4.60;;
29824;SDS011;16713;52.916;12.834;2024-02-14T04:24:33;8.45;;;4.93;;
29824;SDS011;16713;52.916;12.834;2024-02-14T04:27:00;7.20;;;4.45;;
29824;SDS011;16713;52.916;12.834;2024-02-14T04:29:29;8.63;;;4.28;;
29824;SDS011;16713;52.916;12.834;2024-02-14T04:31:59;7.97;;;5.15;;
29824;SDS011;16713;52.916;12.834;2024-02-14T04:34:26;7.25;;;4.70;;
29824;SDS011;16713;52.916;12.834;2024-02-14T04:36:53;9.20;;;5.43;;
29824;SDS011;16713;52.916;12.834;2024-02-14T04:39:19;9.45;;;5.80;;
29824;SDS011;16713;52.916;12.834;2024-02-14T04:41:46;8.88;;;5.63;;
29824;SDS011;16713;52.916;12.834;2024-02-14T04:44:26;14.02;;;6.40;;
29824;SDS011;16713;52.916;12.834;2024-02-14T04:46:53;10.30;;;6.32;;
29824;SDS011;16713;52.916;12.834;2024-02-14T04:49:19;9.57;;;5.57;;
29824;SDS011;16713;52.916;12.834;2024-02-14T04:51:46;9.07;;;5.20;;
29824;SDS011;16713;52.916;12.834;2024-02-14T04:54:12;11.13;;;5.18;;
29824;SDS011;16713;52.916;12.834;2024-02-14T04:56:39;8.20;;;5.10;;
29824;SDS011;16713;52.916;12.834;2024-02-14T04:59:06;6.07;;;4.22;;
29824;SDS011;16713;52.916;12.834;2024-02-14T05:01:33;9.18;;;6.00;;
29824;SDS011;16713;52.916;12.834;2024-02-14T05:03:59;12.48;;;5.18;;
29824;SDS011;16713;52.916;12.834;2024-02-14T05:06:26;7.85;;;4.15;;
29824;SDS011;16713;52.916;12.834;2024-02-14T05:08:52;6.45;;;4.63;;
29824;SDS011;16713;52.916;12.834;2024-02-14T05:11:20;7.03;;;5.15;;
29824;SDS011;16713;52.916;12.834;2024-02-14T05:13:46;8.70;;;5.00;;
29824;SDS011;16713;52.916;12.834;2024-02-14T05:16:13;7.10;;;5.80;;
29824;SDS011;16713;52.916;12.834;2024-02-14T05:18:39;6.45;;;4.55;;
29824;SDS011;16713;52.916;12.834;2024-02-14T05:21:07;7.82;;;4.93;;
29824;SDS011;16713;52.916;12.834;2024-02-14T05:23:34;7.75;;;5.20;;
29824;SDS011;16713;52.916;12.834;2024-02-14T05:26:02;6.95;;;4.63;;
29824;SDS011;16713;52.916;12.834;2024-02-14T05:28:28;10.18;;;4.85;;
29824;SDS011;16713;52.916;12.834;2024-02-14T05:31:01;8.65;;;5.72;;
29824;SDS011;16713;52.916;12.834;2024-02-14T05:33:29;9.52;;;4.82;;
29824;SDS011;16713;52.916;12.834;2024-02-14T05:35:55;9.27;;;5.05;;
29824;SDS011;16713;52.916;12.834;2024-02-14T05:38:22;11.68;;;5.70;;
29824;SDS011;16713;52.916;12.834;2024-02-14T05:40:49;8.13;;;5.22;;
29824;SDS011;16713;52.916;12.834;2024-02-14T05:43:16;8.15;;;5.88;;
29824;SDS011;16713;52.916;12.834;2024-02-14T05:45:44;9.48;;;5.90;;
29824;SDS011;16713;52.916;12.834;2024-02-14T05:48:11;10.95;;;5.55;;
29824;SDS011;16713;52.916;12.834;2024-02-14T05:50:37;8.80;;;5.18;;
29824;SDS011;16713;52.916;12.834;2024-02-14T05:53:04;9.68;;;5.60;;
29824;SDS011;16713;52.916;12.834;2024-02-14T05:55:30;9.77;;;5.38;;
29824;SDS011;16713;52.916;12.834;2024-02-14T05:57:57;8.07;;;5.22;;
29824;SDS011;16713;52.916;12.834;2024-02-14T06:00:25;9.35;;;5.35;;
29824;SDS011;16713;52.916;12.834;2024-02-14T06:02:54;9.10;;;5.47;;
29824;SDS011;16713;52.916;12.834;2024-02-14T06:05:21;13.25;;;5.93;;
29824;SDS011;16713;52.916;12.834;2024-02-14T06:07:48;7.80;;;5.38;;
29824;SDS011;16713;52.916;12.834;2024-02-14T06:10:14;9.18;;;6.10;;
29824;SDS011;16713;52.916;12.834;2024-02-14T06:12:41;14.32;;;5.60;;
29824;SDS011;16713;52.916;12.834;2024-02-14T06:15:09;7.53;;;5.43;;
29824;SDS011;16713;52.916;12.834;2024-02-14T06:17:36;11.90;;;5.78;;
29824;SDS011;16713;52.916;12.834;2024-02-14T06:20:03;12.50;;;5.82;;
29824;SDS011;16713;52.916;12.834;2024-02-14T06:22:32;12.32;;;5.97;;
29824;SDS011;16713;52.916;12.834;2024-02-14T06:25:00;10.27;;;6.25;;
29824;SDS011;16713;52.916;12.834;2024-02-14T06:27:26;8.45;;;5.82;;
29824;SDS011;16713;52.916;12.834;2024-02-14T06:29:53;9.18;;;5.38;;
29824;SDS011;16713;52.916;12.834;2024-02-14T06:32:21;10.85;;;6.25;;
29824;SDS011;16713;52.916;12.834;2024-02-14T06:34:47;11.13;;;6.35;;
29824;SDS011;16713;52.916;12.834;2024-02-14T06:37:14;11.07;;;5.53;;
29824;SDS011;16713;52.916;12.834;2024-02-14T06:39:41;10.93;;;5.90;;
29824;SDS011;16713;52.916;12.834;2024-02-14T06:42:07;11.07;;;5.90;;
29824;SDS011;16713;52.916;12.834;2024-02-14T06:44:34;9.82;;;6.82;;
29824;SDS011;16713;52.916;12.834;2024-02-14T06:47:01;8.57;;;5.95;;
29824;SDS011;16713;52.916;12.834;2024-02-14T06:49:28;9.77;;;6.60;;
29824;SDS011;16713;52.916;12.834;2024-02-14T06:51:54;9.23;;;5.88;;
29824;SDS011;16713;52.916;12.834;2024-02-14T06:54:21;12.52;;;7.07;;
29824;SDS011;16713;52.916;12.834;2024-02-14T06:56:47;9.57;;;6.65;;
29824;SDS011;16713;52.916;12.834;2024-02-14T06:59:14;13.65;;;6.43;;
29824;SDS011;16713;52.916;12.834;2024-02-14T07:01:41;10.48;;;6.47;;
29824;SDS011;16713;52.916;12.834;2024-02-14T07:04:07;14.13;;;6.43;;
29824;SDS011;16713;52.916;12.834;2024-02-14T07:06:34;9.20;;;5.88;;
29824;SDS011;16713;52.916;12.834;2024-02-14T07:09:01;12.30;;;6.50;;
29824;SDS011;16713;52.916;12.834;2024-02-14T07:11:27;12.10;;;6.40;;
29824;SDS011;16713;52.916;12.834;2024-02-14T07:13:54;10.57;;;6.13;;
29824;SDS011;16713;52.916;12.834;2024-02-14T07:16:20;8.45;;;5.65;;
29824;SDS011;16713;52.916;12.834;2024-02-14T07:18:47;13.10;;;7.25;;
29824;SDS011;16713;52.916;12.834;2024-02-14T07:21:13;14.25;;;6.72;;
29824;SDS011;16713;52.916;12.834;2024-02-14T07:23:40;8.43;;;5.75;;
29824;SDS011;16713;52.916;12.834;2024-02-14T07:26:06;8.38;;;5.45;;
29824;SDS011;16713;52.916;12.834;2024-02-14T07:28:33;9.10;;;5.90;;
29824;SDS011;16713;52.916;12.834;2024-02-14T07:30:59;10.77;;;5.78;;
29824;SDS011;16713;52.916;12.834;2024-02-14T07:33:26;10.15;;;6.68;;
29824;SDS011;16713;52.916;12.834;2024-02-14T07:35:52;10.70;;;5.95;;
29824;SDS011;16713;52.916;12.834;2024-02-14T07:38:19;11.65;;;6.30;;
29824;SDS011;16713;52.916;12.834;2024-02-14T07:40:45;10.25;;;5.70;;
29824;SDS011;16713;52.916;12.834;2024-02-14T07:43:12;8.82;;;5.75;;
29824;SDS011;16713;52.916;12.834;2024-02-14T07:45:38;8.93;;;5.70;;
29824;SDS011;16713;52.916;12.834;2024-02-14T07:48:05;9.77;;;5.78;;
29824;SDS011;16713;52.916;12.834;2024-02-14T07:50:32;9.10;;;5.80;;
29824;SDS011;16713;52.916;12.834;2024-02-14T07:52:58;9.52;;;6.10;;
29824;SDS011;16713;52.916;12.834;2024-02-14T07:55:25;12.45;;;6.43;;
29824;SDS011;16713;52.916;12.834;2024-02-14T07:57:51;10.70;;;5.82;;
29824;SDS011;16713;52.916;12.834;2024-02-14T08:00:18;14.18;;;6.18;;
29824;SDS011;16713;52.916;12.834;2024-02-14T08:02:49;11.95;;;6.25;;
29824;SDS011;16713;52.916;12.834;2024-02-14T08:05:16;7.75;;;5.47;;
29824;SDS011;16713;52.916;12.834;2024-02-14T08:07:43;7.53;;;5.07;;
29824;SDS011;16713;52.916;12.834;2024-02-14T08:10:11;8.38;;;6.03;;
29824;SDS011;16713;52.916;12.834;2024-02-14T08:12:37;14.05;;;6.40;;
29824;SDS011;16713;52.916;12.834;2024-02-14T08:15:04;8.10;;;5.45;;
29824;SDS011;16713;52.916;12.834;2024-02-14T08:17:32;12.48;;;6.00;;
29824;SDS011;16713;52.916;12.834;2024-02-14T08:20:03;10.13;;;6.38;;
29824;SDS011;16713;52.916;12.834;2024-02-14T08:22:30;16.08;;;6.93;;
29824;SDS011;16713;52.916;12.834;2024-02-14T08:24:57;8.70;;;5.97;;
29824;SDS011;16713;52.916;12.834;2024-02-14T08:27:24;12.32;;;6.10;;
29824;SDS011;16713;52.916;12.834;2024-02-14T08:29:52;9.18;;;6.22;;
29824;SDS011;16713;52.916;12.834;2024-02-14T08:32:18;14.02;;;6.22;;
29824;SDS011;16713;52.916;12.834;2024-02-14T08:34:45;9.77;;;6.22;;
29824;SDS011;16713;52.916;12.834;2024-02-14T08:37:11;10.80;;;6.72;;
29824;SDS011;16713;52.916;12.834;2024-02-14T08:39:38;11.82;;;5.25;;
29824;SDS011;16713;52.916;12.834;2024-02-14T08:42:05;7.00;;;4.88;;
29824;SDS011;16713;52.916;12.834;2024-02-14T08:44:34;9.95;;;6.22;;
29824;SDS011;16713;52.916;12.834;2024-02-14T08:47:02;9.23;;;5.32;;
29824;SDS011;16713;52.916;12.834;2024-02-14T08:49:28;7.97;;;4.70;;
29824;SDS011;16713;52.916;12.834;2024-02-14T08:51:55;9.93;;;5.03;;
29824;SDS011;16713;52.916;12.834;2024-02-14T08:54:21;9.60;;;5.35;;
29824;SDS011;16713;52.916;12.834;2024-02-14T08:56:49;8.27;;;4.95;;
29824;SDS011;16713;52.916;12.834;2024-02-14T08:59:15;8.10;;;5.18;;
29824;SDS011;16713;52.916;12.834;2024-02-14T09:01:42;9.18;;;4.90;;
29824;SDS011;16713;52.916;12.834;2024-02-14T09:04:08;9.07;;;5.30;;
29824;SDS011;16713;52.916;12.834;2024-02-14T09:06:35;7.75;;;4.80;;
29824;SDS011;16713;52.916;12.834;2024-02-14T09:09:02;15.18;;;4.80;;
29824;SDS011;16713;52.916;12.834;2024-02-14T09:11:29;7.93;;;4.80;;
29824;SDS011;16713;52.916;12.834;2024-02-14T09:13:56;8.32;;;5.25;;
29824;SDS011;16713;52.916;12.834;2024-02-14T09:18:54;7.97;;;4.85;;
29824;SDS011;16713;52.916;12.834;2024-02-14T09:21:21;12.52;;;5.10;;
29824;SDS011;16713;52.916;12.834;2024-02-14T09:23:48;7.88;;;4.47;;
29824;SDS011;16713;52.916;12.834;2024-02-14T09:26:14;5.90;;;4.55;;
29824;SDS011;16713;52.916;12.834;2024-02-14T09:28:43;8.02;;;4.80;;
29824;SDS011;16713;52.916;12.834;2024-02-14T09:31:09;9.18;;;4.82;;
29824;SDS011;16713;52.916;12.834;2024-02-14T09:33:38;8.52;;;4.80;;
29824;SDS011;16713;52.916;12.834;2024-02-14T09:36:06;8.73;;;4.82;;
29824;SDS011;16713;52.916;12.834;2024-02-14T09:38:33;6.68;;;4.30;;
29824;SDS011;16713;52.916;12.834;2024-02-14T09:41:05;10.10;;;4.22;;
29824;SDS011;16713;52.916;12.834;2024-02-14T09:43:39;6.80;;;4.03;;
29824;SDS011;16713;52.916;12.834;2024-02-14T09:46:09;7.20;;;4.45;;
29824;SDS011;16713;52.916;12.834;2024-02-14T09:48:39;7.90;;;4.07;;
29824;SDS011;16713;52.916;12.834;2024-02-14T09:51:07;5.55;;;3.97;;
29824;SDS011;16713;52.916;12.834;2024-02-14T09:53:35;6.72;;;4.60;;
29824;SDS011;16713;52.916;12.834;2024-02-14T09:56:01;9.07;;;4.00;;
29824;SDS011;16713;52.916;12.834;2024-02-14T09:58:28;6.07;;;3.60;;
29824;SDS011;16713;52.916;12.834;2024-02-14T10:00:56;8.75;;;3.50;;
29824;SDS011;16713;52.916;12.834;2024-02-14T10:03:23;6.05;;;3.80;;
29824;SDS011;16713;52.916;12.834;2024-02-14T10:05:50;6.97;;;3.70;;
29824;SDS011;16713;52.916;12.834;2024-02-14T10:08:16;5.97;;;3.88;;
29824;SDS011;16713;52.916;12.834;2024-02-14T10:10:43;8.18;;;4.00;;
29824;SDS011;16713;52.916;12.834;2024-02-14T10:13:14;7.05;;;3.92;;
29824;SDS011;16713;52.916;12.834;2024-02-14T10:15:42;6.20;;;4.13;;
29824;SDS011;16713;52.916;12.834;2024-02-14T10:18:08;5.13;;;3.22;;
29824;SDS011;16713;52.916;12.834;2024-02-14T10:20:35;6.55;;;3.80;;
29824;SDS011;16713;52.916;12.834;2024-02-14T10:23:07;7.68;;;4.22;;
29824;SDS011;16713;52.916;12.834;2024-02-14T10:25:37;5.30;;;3.33;;
29824;SDS011;16713;52.916;12.834;2024-02-14T10:28:05;6.50;;;3.40;;
29824;SDS011;16713;52.916;12.834;2024-02-14T10:30:35;8.10;;;4.20;;
29824;SDS011;16713;52.916;12.834;2024-02-14T10:33:04;9.10;;;5.07;;
29824;SDS011;16713;52.916;12.834;2024-02-14T10:35:49;6.80;;;3.05;;
29824;SDS011;16713;52.916;12.834;2024-02-14T10:38:18;5.97;;;3.30;;
29824;SDS011;16713;52.916;12.834;2024-02-14T10:40:47;6.15;;;3.42;;
29824;SDS011;16713;52.916;12.834;2024-02-14T10:43:13;8.75;;;3.45;;
29824;SDS011;16713;52.916;12.834;2024-02-14T10:45:40;7.38;;;3.60;;
29824;SDS011;16713;52.916;12.834;2024-02-14T10:48:11;6.07;;;3.30;;
29824;SDS011;16713;52.916;12.834;2024-02-14T10:50:40;4.22;;;3.20;;
29824;SDS011;16713;52.916;12.834;2024-02-14T10:53:09;6.40;;;3.67;;
29824;SDS011;16713;52.916;12.834;2024-02-14T10:55:40;13.70;;;3.80;;
29824;SDS011;16713;52.916;12.834;2024-02-14T10:58:08;6.93;;;3.80;;
29824;SDS011;16713;52.916;12.834;2024-02-14T11:00:37;7.30;;;3.67;;
29824;SDS011;16713;52.916;12.834;2024-02-14T11:03:04;10.07;;;4.05;;
29824;SDS011;16713;52.916;12.834;2024-02-14T11:05:32;4.82;;;3.20;;
29824;SDS011;16713;52.916;12.834;2024-02-14T11:08:09;7.63;;;3.30;;
29824;SDS011;16713;52.916;12.834;2024-02-14T11:10:37;9.15;;;4.28;;
29824;SDS011;16713;52.916;12.834;2024-02-14T11:13:04;5.60;;;3.30;;
29824;SDS011;16713;52.916;12.834;2024-02-14T11:15:36;6.10;;;3.65;;
29824;SDS011;16713;52.916;12.834;2024-02-14T11:18:03;4.68;;;3.40;;
29824;SDS011;16713;52.916;12.834;2024-02-14T11:20:32;6.68;;;4.18;;
29824;SDS011;16713;52.916;12.834;2024-02-14T11:23:02;6.95;;;3.65;;
29824;SDS011;16713;52.916;12.834;2024-02-14T11:25:31;6.78;;;3.30;;
29824;SDS011;16713;52.916;12.834;2024-02-14T11:28:00;6.63;;;3.30;;
29824;SDS011;16713;52.916;12.834;2024-02-14T11:30:39;6.13;;;3.72;;
29824;SDS011;16713;52.916;12.834;2024-02-14T11:33:13;5.38;;;3.65;;
29824;SDS011;16713;52.916;12.834;2024-02-14T11:35:47;4.85;;;3.20;;
29824;SDS011;16713;52.916;12.834;2024-02-14T11:38:19;5.50;;;3.25;;
29824;SDS011;16713;52.916;12.834;2024-02-14T11:40:46;6.55;;;3.10;;
29824;SDS011;16713;52.916;12.834;2024-02-14T11:43:13;4.53;;;3.60;;
29824;SDS011;16713;52.916;12.834;2024-02-14T11:45:41;7.93;;;3.95;;
29824;SDS011;16713;52.916;12.834;2024-02-14T11:48:11;8.00;;;2.92;;
29824;SDS011;16713;52.916;12.834;2024-02-14T11:50:43;4.88;;;3.40;;
29824;SDS011;16713;52.916;12.834;2024-02-14T11:53:11;4.30;;;2.75;;
29824;SDS011;16713;52.916;12.834;2024-02-14T11:55:40;4.65;;;2.97;;
29824;SDS011;16713;52.916;12.834;2024-02-14T11:58:10;5.30;;;2.97;;
29824;SDS011;16713;52.916;12.834;2024-02-14T12:00:40;7.13;;;3.65;;
29824;SDS011;16713;52.916;12.834;2024-02-14T12:03:22;7.93;;;3.85;;
29824;SDS011;16713;52.916;12.834;2024-02-14T12:05:50;5.95;;;2.92;;
29824;SDS011;16713;52.916;12.834;2024-02-14T12:08:19;7.65;;;3.28;;
29824;SDS011;16713;52.916;12.834;2024-02-14T12:10:46;3.65;;;3.10;;
29824;SDS011;16713;52.916;12.834;2024-02-14T12:13:16;6.20;;;2.92;;
29824;SDS011;16713;52.916;12.834;2024-02-14T12:15:47;5.22;;;3.03;;
29824;SDS011;16713;52.916;12.834;2024-02-14T12:18:16;4.57;;;2.55;;
29824;SDS011;16713;52.916;12.834;2024-02-14T12:20:44;4.72;;;3.30;;
29824;SDS011;16713;52.916;12.834;2024-02-14T12:23:15;5.60;;;3.05;;
29824;SDS011;16713;52.916;12.834;2024-02-14T12:25:45;5.07;;;2.83;;
29824;SDS011;16713;52.916;12.834;2024-02-14T12:28:16;5.22;;;3.33;;
29824;SDS011;16713;52.916;12.834;2024-02-14T12:30:44;5.75;;;2.67;;
29824;SDS011;16713;52.916;12.834;2024-02-14T12:33:12;3.33;;;2.70;;
29824;SDS011;16713;52.916;12.834;2024-02-14T12:35:47;5.47;;;2.97;;
29824;SDS011;16713;52.916;12.834;2024-02-14T12:38:15;4.07;;;3.10;;
29824;SDS011;16713;52.916;12.834;2024-02-14T12:40:43;6.18;;;3.50;;
29824;SDS011;16713;52.916;12.834;2024-02-14T12:43:11;8.90;;;3.30;;
29824;SDS011;16713;52.916;12.834;2024-02-14T12:45:38;8.15;;;3.50;;
29824;SDS011;16713;52.916;12.834;2024-02-14T12:48:06;7.75;;;3.35;;
29824;SDS011;16713;52.916;12.834;2024-02-14T12:50:37;9.90;;;3.80;;
29824;SDS011;16713;52.916;12.834;2024-02-14T12:53:07;6.07;;;3.60;;
29824;SDS011;16713;52.916;12.834;2024-02-14T12:55:34;5.40;;;3.38;;
29824;SDS011;16713;52.916;12.834;2024-02-14T12:58:01;5.30;;;3.20;;
29824;SDS011;16713;52.916;12.834;2024-02-14T13:00:28;6.22;;;3.70;;
29824;SDS011;16713;52.916;12.834;2024-02-14T13:02:55;6.35;;;3.53;;
29824;SDS011;16713;52.916;12.834;2024-02-14T13:05:22;6.07;;;3.80;;
29824;SDS011;16713;52.916;12.834;2024-02-14T13:07:48;6.30;;;3.67;;
29824;SDS011;16713;52.916;12.834;2024-02-14T13:10:16;6.38;;;2.90;;
29824;SDS011;16713;52.916;12.834;2024-02-14T13:12:43;4.78;;;3.05;;
29824;SDS011;16713;52.916;12.834;2024-02-14T13:15:11;3.60;;;3.13;;
29824;SDS011;16713;52.916;12.834;2024-02-14T13:17:38;5.22;;;3.15;;
29824;SDS011;16713;52.916;12.834;2024-02-14T13:20:05;5.22;;;3.00;;
29824;SDS011;16713;52.916;12.834;2024-02-14T13:22:32;4.68;;;2.95;;
29824;SDS011;16713;52.916;12.834;2024-02-14T13:24:59;5.45;;;3.15;;
29824;SDS011;16713;52.916;12.834;2024-02-14T13:27:26;4.95;;;3.30;;
29824;SDS011;16713;52.916;12.834;2024-02-14T13:29:53;4.40;;;3.30;;
29824;SDS011;16713;52.916;12.834;2024-02-14T13:32:19;5.90;;;3.65;;
29824;SDS011;16713;52.916;12.834;2024-02-14T13:34:46;4.55;;;3.22;;
29824;SDS011;16713;52.916;12.834;2024-02-14T13:37:14;4.80;;;3.55;;
29824;SDS011;16713;52.916;12.834;2024-02-14T13:39:42;5.65;;;3.35;;
29824;SDS011;16713;52.916;12.834;2024-02-14T13:42:10;4.80;;;3.30;;
29824;SDS011;16713;52.916;12.834;2024-02-14T13:44:36;5.65;;;3.30;;
29824;SDS011;16713;52.916;12.834;2024-02-14T13:47:03;4.13;;;3.30;;
29824;SDS011;16713;52.916;12.834;2024-02-14T13:49:29;5.18;;;3.42;;
29824;SDS011;16713;52.916;12.834;2024-02-14T13:51:57;8.65;;;3.45;;
29824;SDS011;16713;52.916;12.834;2024-02-14T13:54:24;5.45;;;3.22;;
29824;SDS011;16713;52.916;12.834;2024-02-14T13:56:51;4.65;;;3.22;;
29824;SDS011;16713;52.916;12.834;2024-02-14T13:59:18;4.40;;;2.78;;
29824;SDS011;16713;52.916;12.834;2024-02-14T14:01:45;7.80;;;3.47;;
29824;SDS011;16713;52.916;12.834;2024-02-14T14:04:12;3.50;;;3.20;;
29824;SDS011;16713;52.916;12.834;2024-02-14T14:06:39;4.20;;;3.38;;
29824;SDS011;16713;52.916;12.834;2024-02-14T14:09:05;5.80;;;4.03;;
29824;SDS011;16713;52.916;12.834;2024-02-14T14:11:34;4.72;;;4.15;;
29824;SDS011;16713;52.916;12.834;2024-02-14T14:14:00;5.32;;;3.60;;
29824;SDS011;16713;52.916;12.834;2024-02-14T14:16:27;8.48;;;4.18;;
29824;SDS011;16713;52.916;12.834;2024-02-14T14:18:53;8.32;;;4.10;;
29824;SDS011;16713;52.916;12.834;2024-02-14T14:21:20;4.78;;;3.90;;
29824;SDS011;16713;52.916;12.834;2024-02-14T14:23:47;5.55;;;4.55;;
29824;SDS011;16713;52.916;12.834;2024-02-14T14:26:13;8.20;;;4.85;;
29824;SDS011;16713;52.916;12.834;2024-02-14T14:28:41;9.50;;;3.90;;
29824;SDS011;16713;52.916;12.834;2024-02-14T14:31:08;6.22;;;4.10;;
29824;SDS011;16713;52.916;12.834;2024-02-14T14:33:38;6.88;;;3.92;;
29824;SDS011;16713;52.916;12.834;2024-02-14T14:36:05;6.40;;;4.40;;
29824;SDS011;16713;52.916;12.834;2024-02-14T14:38:32;8.10;;;4.28;;